CheckWX is a tool to help pilots better visualize weather data.  It is not intended as a substitute for an official pre-flight weather briefing.

19:58:14 UTC

FOOL METAR
Libreville Leon M'ba International Airport
Libreville, Gabon
Current

28 mins ago

FOOL 261930Z 14005KT 8000 -TSRA SCT011 FEW020CB BKN030 24/23 Q1011 NOSIG
Observed
May-26 @ 19:30 UTC
Wind
  • 140° at 5 KTS
Visibility
7,998 meters
Flight Rules
MVFR
Conditions
Light Thunderstorm, Light Rain
Cloud Levels
  • Scattered at 1,100' AGL
  • Few at 2,000' AGL
  • Broken at 3,000' AGL
Temperature
24°C / 75°F
Dewpoint
23°C / 73°F
Humidity
94%
Altimeter
29.85" Hg
Pressure
1010.92 hPa
Previous

58 mins ago

FOOL 261900Z 14005KT 8000 -TSRA SCT011 FEW020CB BKN030 24/23 Q1011 NOSIG
Observed
May-26 @ 19:00 UTC
Wind
  • 140° at 5 KTS
Visibility
7,998 meters
Flight Rules
MVFR
Conditions
Light Thunderstorm, Light Rain
Cloud Levels
  • Scattered at 1,100' AGL
  • Few at 2,000' AGL
  • Broken at 3,000' AGL
Temperature
24°C / 75°F
Dewpoint
23°C / 73°F
Humidity
94%
Altimeter
29.85" Hg
Pressure
1010.92 hPa
Previous

1 hour ago

FOOL 261830Z 14005KT 8000 -TSRA SCT011 FEW020CB BKN030 25/23 Q1011 NOSIG
Observed
May-26 @ 18:30 UTC
Wind
  • 140° at 5 KTS
Visibility
7,998 meters
Flight Rules
MVFR
Conditions
Light Thunderstorm, Light Rain
Cloud Levels
  • Scattered at 1,100' AGL
  • Few at 2,000' AGL
  • Broken at 3,000' AGL
Temperature
25°C / 77°F
Dewpoint
23°C / 73°F
Humidity
89%
Altimeter
29.85" Hg
Pressure
1010.92 hPa